Miami Beach, Florida
Current Conditions -  °F | °C
As of 6:53 PM on Saturday 25 Oct 2014 (Local Time) from KMIA Reporting Station
Few Clouds Few Clouds  
Wind Chill: 77°   Ceiling: Unl
Heat Index: 79°   Visibility: 10mi
Dew Point: 60°   Wind: 8mph
Humidity: 56%   Direction: 40°NE
Pressure: 29.9"   Gusts: NA
Location:  25.81°N, 80.13°W
Report Text: KMIA 252253Z 04007KT 10SM FEW050 FEW300 25/16 A2990 RMK AO2 SLP126 T02500156
Loading
Personal Weather Stations






























Interactive Weather Map New forecast layout! Learn more

10-Day Weather Forecast

Advertisements
Track Severe Weather on mobile